Time;durP1;ratioP1;P1;durP2;ratioP2;P2;SDS_P1;SDS_P2;PMS_P1;PMS_P2;Temp;Humidity;BMP_temperature;BMP_pressure;BME280_temperature;BME280_humidity;BME280_pressure;Samples;Min_cycle;Max_cycle;Signal;HPM_P1;HPM_P2
2022/08/02 00:01:13;;;;;;;1.40;1.30;;;;;;;22.20;54.62;98988.78;5074325;28;38741;-74
2022/08/02 00:03:42;;;;;;;1.53;1.40;;;;;;;22.31;53.88;99006.50;5075054;28;41074;-74
2022/08/02 00:06:09;;;;;;;1.10;1.10;;;;;;;22.36;53.78;99009.56;5091747;28;42865;-74
2022/08/02 00:08:37;;;;;;;1.03;1.00;;;;;;;22.40;53.77;99000.94;5074512;28;41089;-74
2022/08/02 00:11:05;;;;;;;1.33;1.23;;;;;;;22.47;53.78;99001.13;5091855;28;39972;-74
2022/08/02 00:13:33;;;;;;;1.10;1.10;;;;;;;22.51;53.48;98997.91;5093121;28;41822;-74
2022/08/02 00:16:00;;;;;;;0.97;0.90;;;;;;;22.55;53.62;99001.13;5091816;28;41781;-74
2022/08/02 00:18:28;;;;;;;1.40;1.30;;;;;;;22.40;53.57;98973.97;5092647;28;42801;-74
2022/08/02 00:20:57;;;;;;;1.30;1.20;;;;;;;22.60;53.79;99004.19;5091655;28;40790;-74
2022/08/02 00:23:25;;;;;;;1.03;1.03;;;;;;;22.53;53.60;98984.25;5074595;28;42148;-74
2022/08/02 00:25:52;;;;;;;1.30;1.20;;;;;;;22.60;53.56;98984.44;5091706;28;41421;-74
2022/08/02 00:28:20;;;;;;;1.40;1.30;;;;;;;22.58;53.35;98987.31;5091414;28;43055;-74
2022/08/02 00:30:48;;;;;;;1.23;1.13;;;;;;;22.53;53.86;98990.50;5091630;28;39946;-73
2022/08/02 00:33:16;;;;;;;1.13;1.07;;;;;;;22.49;53.75;98986.47;5074338;28;41788;-74
2022/08/02 00:35:46;;;;;;;0.93;0.93;;;;;;;22.37;54.52;98974.31;5091262;28;43663;-73
2022/08/02 00:38:15;;;;;;;1.73;1.17;;;;;;;22.35;54.82;98987.13;5091286;28;43281;-74
2022/08/02 00:40:47;;;;;;;1.40;1.30;;;;;;;22.25;55.31;98975.66;5091470;28;40098;-73
2022/08/02 00:43:16;;;;;;;1.10;1.10;;;;;;;22.23;55.91;98983.06;5091105;28;42686;-73
2022/08/02 00:45:44;;;;;;;1.77;1.40;;;;;;;22.18;55.57;98990.81;5092494;28;43685;-73
2022/08/02 00:48:13;;;;;;;1.17;1.17;;;;;;;22.14;55.63;98994.84;5091193;28;42520;-73
2022/08/02 00:50:41;;;;;;;1.33;1.23;;;;;;;22.11;55.28;98987.09;5091231;28;39016;-74
2022/08/02 00:53:10;;;;;;;1.00;1.00;;;;;;;22.08;55.55;98990.97;5092458;28;41753;-73
2022/08/02 00:55:39;;;;;;;1.33;1.23;;;;;;;22.07;55.89;98999.22;5092241;28;42759;-73
2022/08/02 00:58:07;;;;;;;1.10;1.10;;;;;;;22.08;55.83;98996.38;5092107;28;42267;-73
2022/08/02 01:00:35;;;;;;;1.20;1.10;;;;;;;22.08;55.54;99001.75;5091199;28;40732;-73
2022/08/02 01:03:02;;;;;;;1.20;1.10;;;;;;;22.11;55.69;99011.38;5090986;28;41845;-73
2022/08/02 01:05:30;;;;;;;1.00;1.00;;;;;;;22.09;55.39;99008.84;5090853;28;43761;-74
2022/08/02 01:07:58;;;;;;;1.13;1.03;;;;;;;22.06;55.30;99002.94;5090811;28;42089;-73
2022/08/02 01:10:26;;;;;;;2.03;1.10;;;;;;;22.07;55.24;99005.47;5072991;28;40369;-73
2022/08/02 01:12:55;;;;;;;1.17;1.07;;;;;;;22.01;55.20;99007.97;5090849;28;42472;-73
2022/08/02 01:15:23;;;;;;;1.20;1.10;;;;;;;22.01;55.39;99006.09;5073810;28;41890;-73
2022/08/02 01:17:56;;;;;;;0.90;0.90;;;;;;;21.88;54.99;98995.75;5073646;28;42813;-73
2022/08/02 01:20:49;;;;;;;1.17;1.10;;;;;;;21.90;55.73;98997.44;5088018;28;39945;-73
2022/08/02 01:23:31;;;;;;;1.30;1.20;;;;;;;21.84;56.45;99007.91;5090715;28;41803;-73
2022/08/02 01:26:18;;;;;;;1.60;1.50;;;;;;;21.80;56.56;99003.00;5088782;28;42743;-73
2022/08/02 01:28:53;;;;;;;1.40;1.30;;;;;;;21.74;56.47;99012.59;5091800;28;43185;-72
2022/08/02 01:31:29;;;;;;;1.00;1.00;;;;;;;21.66;56.29;99017.09;5089101;28;39793;-72
2022/08/02 01:34:02;;;;;;;1.27;1.17;;;;;;;21.65;55.92;99027.03;5088460;28;41707;-73
2022/08/02 01:36:36;;;;;;;1.10;1.10;;;;;;;21.61;55.89;99022.97;5088994;28;43775;-72
2022/08/02 01:39:05;;;;;;;0.80;0.80;;;;;;;21.55;56.10;99014.69;5090269;28;42360;-72
2022/08/02 01:41:35;;;;;;;1.07;1.07;;;;;;;21.49;55.86;99026.97;5073601;28;39145;-72
2022/08/02 01:44:07;;;;;;;1.03;0.93;;;;;;;21.41;55.86;99034.97;5091494;28;42621;-72
2022/08/02 01:46:35;;;;;;;1.03;0.93;;;;;;;21.31;55.72;99026.19;5089319;28;43844;-73
2022/08/02 01:49:07;;;;;;;1.07;1.03;;;;;;;21.30;55.98;99037.97;5091446;28;43135;-72
2022/08/02 01:54:27;;;;;;;0.93;0.93;;;;;;;21.17;56.26;99023.03;5091522;28;42573;-72
2022/08/02 01:56:56;;;;;;;0.93;0.93;;;;;;;21.13;56.04;99026.22;5088312;28;42727;-72
2022/08/02 01:59:27;;;;;;;1.23;1.13;;;;;;;21.09;56.64;99016.75;5091135;28;42268;-72
2022/08/02 02:01:57;;;;;;;0.80;0.80;;;;;;;21.06;56.62;99026.00;5089434;28;40831;-72
2022/08/02 02:04:28;;;;;;;0.80;0.80;;;;;;;21.05;56.60;99023.44;5090198;28;41843;-72
2022/08/02 02:06:57;;;;;;;1.20;1.10;;;;;;;20.99;57.14;99019.56;5091324;28;43544;-73
2022/08/02 02:09:28;;;;;;;1.10;1.03;;;;;;;21.02;57.01;99030.00;5089550;28;40929;-72
2022/08/02 02:11:58;;;;;;;0.87;0.87;;;;;;;20.99;56.70;99030.34;5088307;28;40034;-72
2022/08/02 02:14:29;;;;;;;0.70;0.70;;;;;;;20.99;56.45;99030.34;5090126;28;41778;-72
2022/08/02 02:16:59;;;;;;;0.83;0.83;;;;;;;20.90;56.65;99015.09;5072913;28;39644;-72
2022/08/02 02:19:28;;;;;;;1.03;1.03;;;;;;;20.82;56.35;99004.28;5089916;28;41541;-72
2022/08/02 02:21:57;;;;;;;1.20;1.10;;;;;;;20.91;56.61;99027.56;5090931;28;39885;-72
2022/08/02 02:24:25;;;;;;;1.10;1.10;;;;;;;20.88;56.56;99027.91;5073443;28;40725;-72
2022/08/02 02:26:53;;;;;;;0.90;0.90;;;;;;;20.86;56.43;99029.06;5076621;28;42550;-73
2022/08/02 02:29:28;;;;;;;1.33;1.10;;;;;;;20.84;56.87;99031.91;5094652;28;42260;-73
2022/08/02 02:31:59;;;;;;;0.90;0.90;;;;;;;20.82;56.56;99027.66;5092702;28;39770;-72
2022/08/02 02:34:29;;;;;;;0.93;0.83;;;;;;;20.83;56.51;99022.13;5093669;28;41612;-72
2022/08/02 02:37:01;;;;;;;0.90;0.90;;;;;;;20.85;56.73;99028.22;5094344;28;42490;-72
2022/08/02 02:39:31;;;;;;;1.00;0.90;;;;;;;20.85;56.32;99025.50;5090217;28;43010;-72
2022/08/02 02:42:03;;;;;;;1.00;0.90;;;;;;;20.88;56.51;99021.66;5075907;28;38936;-73
2022/08/02 02:44:34;;;;;;;0.80;0.80;;;;;;;20.75;56.74;98989.78;5089986;28;41721;-73
2022/08/02 02:47:03;;;;;;;0.90;0.90;;;;;;;20.92;56.43;99018.47;5092486;28;42772;-72
2022/08/02 02:49:35;;;;;;;0.90;0.90;;;;;;;20.95;56.41;99022.72;5092837;28;43196;-72
2022/08/02 02:52:04;;;;;;;1.10;1.00;;;;;;;20.97;56.28;99013.47;5091092;28;41693;-73
2022/08/02 02:54:33;;;;;;;1.00;1.00;;;;;;;20.98;56.78;99017.03;5092900;28;40890;-72
2022/08/02 02:57:01;;;;;;;1.20;1.10;;;;;;;21.00;56.86;99015.88;5092747;28;42524;-72
2022/08/02 02:59:30;;;;;;;1.93;1.27;;;;;;;20.99;56.56;99016.88;5094162;28;43272;-72
2022/08/02 03:02:00;;;;;;;1.13;1.10;;;;;;;21.01;56.77;99020.25;5094088;28;40998;-74
2022/08/02 03:04:29;;;;;;;0.90;0.90;;;;;;;21.01;57.17;99014.88;5094303;28;41868;-72
2022/08/02 03:06:57;;;;;;;0.90;0.90;;;;;;;21.03;57.13;99020.06;5092643;28;43658;-73
2022/08/02 03:09:24;;;;;;;0.93;0.93;;;;;;;21.02;57.40;99021.91;5093830;28;43270;-72
2022/08/02 03:11:54;;;;;;;1.10;0.90;;;;;;;21.08;57.38;99018.59;5092638;28;41072;-72
2022/08/02 03:14:22;;;;;;;0.90;0.90;;;;;;;21.11;57.13;99026.38;5092797;28;42536;-72
2022/08/02 03:16:51;;;;;;;1.70;1.07;;;;;;;21.15;57.02;99025.03;5092583;28;43766;-72
2022/08/02 03:19:22;;;;;;;1.20;1.10;;;;;;;21.19;57.06;99024.75;5075733;28;41634;-73
2022/08/02 03:21:51;;;;;;;0.90;0.90;;;;;;;21.22;57.14;99029.84;5091689;28;39991;-73
2022/08/02 03:24:19;;;;;;;1.00;1.00;;;;;;;21.25;57.40;99029.53;5075752;28;42102;-73
2022/08/02 03:26:47;;;;;;;1.00;1.00;;;;;;;21.25;58.01;99029.53;5093482;28;43044;-73
2022/08/02 03:29:14;;;;;;;1.00;0.93;;;;;;;21.26;57.77;99031.22;5092461;28;41424;-73
2022/08/02 03:31:45;;;;;;;1.37;1.27;;;;;;;21.26;57.64;99036.59;5092385;28;40421;-74
2022/08/02 03:34:13;;;;;;;1.00;1.00;;;;;;;21.25;57.20;99033.06;5075494;28;43252;-72
2022/08/02 03:36:43;;;;;;;2.07;1.10;;;;;;;21.23;57.96;99023.44;5090460;28;41357;-72
2022/08/02 03:39:12;;;;;;;1.10;1.10;;;;;;;21.19;57.89;99020.22;5093223;28;42989;-73
2022/08/02 03:41:42;;;;;;;1.07;1.07;;;;;;;21.15;57.75;99025.03;5092234;28;39936;-73
2022/08/02 03:44:11;;;;;;;1.03;1.00;;;;;;;21.11;57.51;99029.06;5092489;28;41627;-73
2022/08/02 03:46:40;;;;;;;1.17;1.07;;;;;;;21.04;57.66;99019.91;5075168;28;42875;-73
2022/08/02 03:49:09;;;;;;;0.73;0.73;;;;;;;21.03;57.57;99023.59;5092320;28;42328;-74
2022/08/02 03:51:37;;;;;;;0.90;0.90;;;;;;;20.97;57.51;99026.09;5091991;28;40997;-74
2022/08/02 03:54:06;;;;;;;0.97;0.97;;;;;;;20.90;57.72;99033.94;5075154;28;40669;-73
2022/08/02 03:56:34;;;;;;;1.53;0.93;;;;;;;20.84;57.65;99041.81;5074937;28;43225;-73
2022/08/02 03:59:07;;;;;;;1.23;0.80;;;;;;;20.73;57.75;99032.16;5093321;28;42594;-74
2022/08/02 04:01:35;;;;;;;1.67;0.77;;;;;;;20.44;57.80;98987.50;5091719;28;38862;-73
2022/08/02 04:04:03;;;;;;;1.70;0.97;;;;;;;20.66;58.07;99033.75;5091886;28;42779;-73
2022/08/02 04:06:30;;;;;;;0.87;0.87;;;;;;;20.56;57.97;99035.69;5091758;28;42773;-73
2022/08/02 04:08:58;;;;;;;1.13;1.00;;;;;;;20.57;57.98;99042.75;5091731;28;42048;-73
2022/08/02 04:11:34;;;;;;;1.03;1.03;;;;;;;20.57;58.09;99051.69;5092972;28;40967;-73
2022/08/02 04:14:05;;;;;;;0.70;0.70;;;;;;;20.56;58.13;99055.38;5090015;28;41547;-73
2022/08/02 04:16:41;;;;;;;1.20;1.10;;;;;;;20.55;58.56;99055.53;5090507;28;42634;-73
2022/08/02 04:19:11;;;;;;;1.20;1.10;;;;;;;20.60;58.93;99066.69;5091839;28;42678;-73
2022/08/02 04:21:42;;;;;;;1.30;0.90;;;;;;;20.65;58.74;99069.72;5074892;28;38432;-73
2022/08/02 04:24:12;;;;;;;1.30;1.20;;;;;;;20.70;58.53;99062.06;5092024;28;42584;-73
2022/08/02 04:26:44;;;;;;;1.40;1.30;;;;;;;20.75;59.16;99060.59;5074729;28;41945;-73
2022/08/02 04:29:14;;;;;;;1.50;1.40;;;;;;;20.78;59.05;99054.88;5091388;28;42977;-74
2022/08/02 04:31:43;;;;;;;1.23;1.13;;;;;;;20.83;59.36;99056.28;5074538;28;39777;-74
2022/08/02 04:34:11;;;;;;;1.20;1.20;;;;;;;20.83;59.28;99054.44;5091622;28;41838;-74
2022/08/02 04:36:38;;;;;;;1.33;1.23;;;;;;;20.78;59.56;99054.03;5074167;28;41713;-74
2022/08/02 04:39:06;;;;;;;1.00;1.00;;;;;;;20.82;59.27;99059.97;5092692;28;42011;-73
2022/08/02 04:41:39;;;;;;;1.03;1.00;;;;;;;20.81;59.31;99067.19;5091127;28;38884;-73
2022/08/02 04:44:08;;;;;;;1.20;1.20;;;;;;;20.82;59.10;99068.88;5089684;28;43030;-73
2022/08/02 04:46:37;;;;;;;1.07;1.07;;;;;;;20.76;59.49;99056.06;5074095;28;42970;-73
2022/08/02 04:49:04;;;;;;;0.90;0.90;;;;;;;20.84;59.26;99069.59;5073812;28;42667;-73
2022/08/02 04:51:34;;;;;;;0.97;0.97;;;;;;;20.86;58.88;99064.06;5092069;28;40020;-73
2022/08/02 04:54:03;;;;;;;1.33;1.23;;;;;;;20.88;58.75;99060.22;5074005;28;42429;-73
2022/08/02 04:56:30;;;;;;;0.80;0.80;;;;;;;20.91;58.75;99070.63;5074026;28;43210;-73
2022/08/02 04:58:58;;;;;;;1.17;1.07;;;;;;;20.95;58.74;99055.88;5092480;28;43222;-74
2022/08/02 05:01:27;;;;;;;1.27;1.17;;;;;;;20.99;58.46;99054.56;5090872;28;40254;-74
2022/08/02 05:03:55;;;;;;;0.97;0.97;;;;;;;21.05;58.53;99066.53;5090923;28;41584;-73
2022/08/02 05:06:23;;;;;;;0.90;0.90;;;;;;;21.11;58.76;99069.47;5073777;28;41574;-73
2022/08/02 05:08:51;;;;;;;1.07;1.07;;;;;;;21.24;58.80;99065.53;5090525;28;41240;-73
2022/08/02 05:11:18;;;;;;;0.90;0.90;;;;;;;21.33;58.81;99072.66;5092302;28;39936;-74
2022/08/02 05:13:46;;;;;;;0.90;0.90;;;;;;;21.40;58.72;99062.94;5090827;28;41845;-73
2022/08/02 05:16:14;;;;;;;1.30;1.20;;;;;;;21.53;59.05;99060.66;5091753;28;43773;-73
2022/08/02 05:18:43;;;;;;;1.10;1.10;;;;;;;21.64;58.52;99067.59;5090701;28;42407;-73
2022/08/02 05:21:11;;;;;;;1.40;1.30;;;;;;;21.78;58.53;99075.94;5090494;28;42759;-74
2022/08/02 05:23:38;;;;;;;1.03;0.93;;;;;;;21.92;58.28;99076.34;5088876;28;41842;-74
2022/08/02 05:26:06;;;;;;;1.30;1.20;;;;;;;22.01;58.18;99086.16;5089027;28;43276;-74
2022/08/02 05:28:34;;;;;;;1.10;1.10;;;;;;;22.16;57.98;99080.00;5088646;28;42128;-73
2022/08/02 05:31:02;;;;;;;1.77;1.23;;;;;;;22.30;57.89;99070.44;5089201;28;39950;-73
2022/08/02 05:33:30;;;;;;;1.00;1.00;;;;;;;22.37;57.76;99076.88;5090181;28;41718;-74
2022/08/02 05:36:00;;;;;;;1.37;1.30;;;;;;;22.52;57.19;99085.13;5089028;28;41907;-74
2022/08/02 05:38:29;;;;;;;1.03;1.03;;;;;;;22.60;57.28;99093.28;5088202;28;41255;-74
2022/08/02 05:40:57;;;;;;;1.27;1.17;;;;;;;22.70;57.04;99091.25;5072830;28;40309;-75
2022/08/02 05:43:25;;;;;;;1.50;1.40;;;;;;;22.83;56.46;99088.94;5089023;28;41597;-73
2022/08/02 05:45:53;;;;;;;1.53;1.43;;;;;;;22.92;56.38;99098.72;5088930;28;42205;-73
2022/08/02 05:48:21;;;;;;;1.40;1.30;;;;;;;23.00;56.15;99099.72;5088571;28;42224;-74
2022/08/02 05:50:55;;;;;;;0.93;0.93;;;;;;;23.03;55.73;99100.25;5089303;28;39422;-73
2022/08/02 05:53:38;;;;;;;1.37;1.27;;;;;;;23.09;56.01;99110.38;5070772;28;43382;-74
2022/08/02 05:56:16;;;;;;;1.00;1.00;;;;;;;23.19;55.81;99115.59;5089549;28;42798;-73
2022/08/02 05:58:50;;;;;;;1.00;1.00;;;;;;;23.31;55.42;99110.69;5086888;28;42251;-73
2022/08/02 06:01:26;;;;;;;1.83;1.20;;;;;;;23.43;55.17;99110.19;5074686;28;40411;-75
2022/08/02 06:03:58;;;;;;;1.20;1.10;;;;;;;23.54;55.02;99109.00;5090389;28;41690;-74
2022/08/02 06:06:27;;;;;;;1.20;1.10;;;;;;;23.64;55.03;99113.19;5088702;28;43827;-74
2022/08/02 06:09:00;;;;;;;1.13;1.10;;;;;;;23.80;54.68;99115.03;5090740;28;41385;-74
2022/08/02 06:11:35;;;;;;;2.00;1.00;;;;;;;24.13;53.67;99113.03;5085752;28;41952;-75
2022/08/02 06:14:04;;;;;;;1.60;1.20;;;;;;;24.24;53.12;99106.41;5085877;28;41805;-74
2022/08/02 06:16:32;;;;;;;1.33;1.10;;;;;;;24.30;52.75;99106.56;5075146;28;42513;-75
2022/08/02 06:19:01;;;;;;;1.53;1.20;;;;;;;24.47;52.91;99118.16;5092162;28;40896;-74
2022/08/02 06:21:29;;;;;;;1.03;0.97;;;;;;;24.60;52.56;99115.69;5088996;28;40966;-74
2022/08/02 06:23:59;;;;;;;1.07;0.93;;;;;;;24.79;51.91;99114.38;5092727;28;41439;-75
2022/08/02 06:26:28;;;;;;;1.10;1.10;;;;;;;25.04;51.62;99123.22;5093594;28;43570;-75
2022/08/02 06:28:58;;;;;;;1.17;1.10;;;;;;;25.27;50.90;99121.31;5091928;28;42239;-74
2022/08/02 06:31:26;;;;;;;1.20;1.00;;;;;;;25.44;50.85;99118.47;5093011;28;40087;-75
2022/08/02 06:33:53;;;;;;;1.73;1.27;;;;;;;25.67;50.39;99121.97;5074659;28;43764;-75
2022/08/02 06:36:28;;;;;;;1.00;0.90;;;;;;;25.80;49.38;99122.16;5093327;28;42816;-74
2022/08/02 06:39:03;;;;;;;1.80;1.00;;;;;;;25.90;48.81;99122.72;5089488;28;42483;-74
2022/08/02 06:41:37;;;;;;;1.27;1.17;;;;;;;25.87;48.53;99127.69;5086104;28;40739;-74
2022/08/02 06:44:05;;;;;;;1.30;1.20;;;;;;;25.84;48.52;99123.47;5071690;28;41870;-75
2022/08/02 06:46:33;;;;;;;1.20;1.07;;;;;;;25.88;48.70;99124.78;5089163;28;43947;-74
2022/08/02 06:49:01;;;;;;;1.30;1.20;;;;;;;26.03;48.61;99127.50;5091722;28;42491;-74
2022/08/02 06:51:29;;;;;;;1.40;1.30;;;;;;;26.17;48.29;99128.53;5075200;28;39492;-74
2022/08/02 06:53:57;;;;;;;1.50;1.40;;;;;;;26.28;47.46;99131.63;5091321;28;41560;-76
2022/08/02 06:56:26;;;;;;;1.30;1.20;;;;;;;26.46;47.39;99129.34;5093194;28;43840;-74
2022/08/02 06:58:54;;;;;;;1.57;1.10;;;;;;;26.62;47.34;99132.88;5092664;28;42287;-74
2022/08/02 07:01:22;;;;;;;1.20;1.10;;;;;;;26.81;47.12;99138.53;5094046;28;40966;-75
2022/08/02 07:03:50;;;;;;;1.50;1.40;;;;;;;27.01;46.14;99144.19;5093048;28;42727;-75
2022/08/02 07:06:17;;;;;;;1.23;1.23;;;;;;;27.18;46.00;99140.19;5093762;28;42791;-75
2022/08/02 07:08:46;;;;;;;1.30;1.20;;;;;;;27.16;45.46;99136.81;5092507;28;42396;-74
2022/08/02 07:11:13;;;;;;;1.30;1.20;;;;;;;27.25;45.87;99142.97;5076112;28;39234;-75
2022/08/02 07:13:43;;;;;;;1.73;1.03;;;;;;;27.34;45.72;99149.94;5094238;28;42624;-75
2022/08/02 07:16:11;;;;;;;1.63;1.53;;;;;;;27.47;45.09;99155.47;5092284;28;43606;-75
2022/08/02 07:18:38;;;;;;;1.33;1.23;;;;;;;27.78;44.87;99162.47;5092672;28;42655;-75
2022/08/02 07:21:06;;;;;;;1.93;1.50;;;;;;;27.96;44.32;99157.34;5092623;28;39917;-74
2022/08/02 07:23:34;;;;;;;1.30;1.20;;;;;;;28.18;43.86;99161.72;5075414;28;40311;-74
2022/08/02 07:26:02;;;;;;;1.10;1.10;;;;;;;28.43;43.42;99158.47;5093764;28;43772;-73
2022/08/02 07:28:29;;;;;;;1.53;1.43;;;;;;;28.70;42.49;99152.06;5093593;28;43554;-73
2022/08/02 07:30:58;;;;;;;0.90;0.90;;;;;;;28.82;42.82;99153.19;5093827;28;40757;-73
2022/08/02 07:33:26;;;;;;;2.63;1.50;;;;;;;28.83;42.84;99151.28;5093546;28;42681;-73
2022/08/02 07:35:56;;;;;;;1.20;1.20;;;;;;;28.88;42.21;99155.09;5075542;28;41855;-73
2022/08/02 07:38:23;;;;;;;1.10;1.10;;;;;;;28.99;41.48;99166.44;5093235;28;43088;-73
2022/08/02 07:40:51;;;;;;;1.33;1.30;;;;;;;29.19;41.97;99162.69;5088172;28;39041;-75
2022/08/02 07:43:19;;;;;;;7.33;2.53;;;;;;;29.31;41.52;99161.03;5092784;28;41590;-74
2022/08/02 07:45:46;;;;;;;1.83;1.20;;;;;;;29.35;41.05;99164.19;5091779;28;42599;-74
2022/08/02 07:48:16;;;;;;;1.27;1.27;;;;;;;29.36;41.22;99160.41;5091087;28;42227;-74
2022/08/02 07:50:45;;;;;;;1.53;1.30;;;;;;;29.24;40.95;99137.53;5092658;28;41087;-74
2022/08/02 07:53:13;;;;;;;1.10;1.10;;;;;;;29.40;40.71;99163.59;5090929;28;41945;-74
2022/08/02 07:55:41;;;;;;;1.37;1.27;;;;;;;29.57;40.50;99160.22;5092746;28;42882;-74
2022/08/02 07:58:10;;;;;;;1.40;1.30;;;;;;;29.73;39.97;99163.59;5092297;28;44189;-75
2022/08/02 08:00:37;;;;;;;1.30;1.20;;;;;;;29.92;39.97;99165.47;5091546;28;39981;-76
2022/08/02 08:03:05;;;;;;;1.50;1.40;;;;;;;30.23;39.75;99162.88;5090984;28;41162;-75
2022/08/02 08:05:34;;;;;;;1.30;1.20;;;;;;;30.52;38.64;99166.16;5092433;28;42799;-75
2022/08/02 08:08:01;;;;;;;1.00;1.00;;;;;;;30.92;38.25;99161.34;5091980;28;43090;-76
2022/08/02 08:10:29;;;;;;;1.13;1.10;;;;;;;31.23;37.74;99144.13;5074154;28;38784;-75
2022/08/02 08:12:59;;;;;;;1.20;1.17;;;;;;;31.71;36.53;99175.34;5092033;28;41926;-75
2022/08/02 08:15:26;;;;;;;1.60;1.50;;;;;;;32.04;35.76;99176.94;5074115;28;44527;-75
2022/08/02 08:17:54;;;;;;;1.03;1.03;;;;;;;32.40;35.26;99171.50;5090855;28;43171;-76
2022/08/02 08:20:22;;;;;;;1.40;1.30;;;;;;;32.88;34.58;99181.69;5074192;28;38791;-75
2022/08/02 08:22:52;;;;;;;1.40;1.30;;;;;;;33.28;33.20;99192.13;5090000;28;41686;-76
2022/08/02 08:25:19;;;;;;;1.20;1.20;;;;;;;33.41;33.17;99191.91;5091014;28;42463;-75
2022/08/02 08:27:51;;;;;;;1.00;1.00;;;;;;;33.49;33.28;99191.59;5091639;28;42213;-74
2022/08/02 08:30:20;;;;;;;1.27;1.17;;;;;;;33.94;32.85;99193.81;5090910;28;41496;-75
2022/08/02 08:32:48;;;;;;;1.20;1.10;;;;;;;34.72;31.80;99201.63;5073563;28;40609;-75
2022/08/02 08:35:16;;;;;;;1.00;1.00;;;;;;;35.36;30.44;99210.66;5090733;28;42369;-75
2022/08/02 08:37:44;;;;;;;1.20;1.20;;;;;;;35.95;29.47;99204.53;5073030;28;41111;-75
2022/08/02 08:40:14;;;;;;;1.23;1.13;;;;;;;36.56;28.30;99216.47;5090721;28;39934;-78
2022/08/02 08:42:42;;;;;;;1.40;1.30;;;;;;;36.84;28.08;99206.34;5073446;28;42049;-76
2022/08/02 08:45:11;;;;;;;1.40;1.30;;;;;;;37.08;27.90;99216.03;5090614;28;43541;-74
2022/08/02 08:47:40;;;;;;;3.07;1.23;;;;;;;37.70;26.56;99221.94;5090178;28;41933;-74
2022/08/02 08:50:10;;;;;;;1.40;1.30;;;;;;;38.92;25.37;99221.91;5073668;28;38777;-76
2022/08/02 08:52:43;;;;;;;1.40;1.30;;;;;;;40.28;23.57;99229.63;5090177;28;42287;-76
2022/08/02 08:55:14;;;;;;;1.40;1.30;;;;;;;41.47;22.34;99241.63;5073742;28;42737;-75
2022/08/02 08:57:44;;;;;;;1.10;1.10;;;;;;;42.54;21.44;99238.78;5089434;28;42339;-75
2022/08/02 09:00:15;;;;;;;1.38;1.27;;;;;;;42.96;21.50;99246.38;5090308;28;40230;-75
2022/08/02 09:02:43;;;;;;;2.47;1.98;;;;;;;42.65;20.96;99239.50;5089943;28;40786;-74
2022/08/02 09:05:13;;;;;;;1.27;1.20;;;;;;;42.09;21.70;99237.28;5073240;28;41501;-75
2022/08/02 09:07:43;;;;;;;1.05;0.98;;;;;;;41.37;22.34;99224.19;5072880;28;43939;-74
2022/08/02 09:10:47;;;;;;;1.92;1.40;;;;;;;40.69;22.35;99227.53;5073035;28;38522;-75
2022/08/02 09:13:17;;;;;;;1.10;1.10;;;;;;;40.11;23.39;99213.22;5073060;28;40318;-76
2022/08/02 09:15:52;;;;;;;0.90;0.90;;;;;;;40.06;23.22;99210.44;5090138;28;42689;-74
2022/08/02 09:18:20;;;;;;;1.38;1.25;;;;;;;40.15;22.70;99197.69;5089606;28;42413;-75
2022/08/02 09:20:56;;;;;;;1.10;1.10;;;;;;;39.50;23.57;99217.94;5090220;28;40031;-75
2022/08/02 09:23:25;;;;;;;1.00;1.00;;;;;;;39.22;23.79;99216.47;5089741;28;41814;-76
2022/08/02 09:25:59;;;;;;;1.30;1.20;;;;;;;38.56;24.16;99216.22;5089374;28;42704;-76
2022/08/02 09:28:28;;;;;;;1.10;1.10;;;;;;;37.57;24.67;99205.78;5072478;28;41547;-75
2022/08/02 09:31:05;;;;;;;2.53;1.10;;;;;;;36.49;25.93;99203.94;5090009;28;41183;-75
2022/08/02 09:33:34;;;;;;;1.70;1.00;;;;;;;35.74;26.92;99185.97;5088162;28;41569;-74
2022/08/02 09:36:03;;;;;;;1.57;1.30;;;;;;;35.61;27.22;99189.03;5072873;28;42761;-75
2022/08/02 09:38:34;;;;;;;1.10;1.10;;;;;;;35.73;26.79;99189.81;5090731;28;42236;-74
2022/08/02 09:41:05;;;;;;;1.40;1.17;;;;;;;35.29;27.67;99195.09;5089749;28;41302;-75
2022/08/02 09:43:38;;;;;;;1.03;1.03;;;;;;;35.78;27.24;99195.41;5088314;28;42743;-74
2022/08/02 09:46:14;;;;;;;1.00;1.00;;;;;;;36.25;26.63;99197.81;5089774;28;42805;-75
2022/08/02 09:48:50;;;;;;;2.63;1.23;;;;;;;36.31;26.34;99194.03;5090140;28;41314;-74
2022/08/02 09:51:19;;;;;;;1.33;1.17;;;;;;;36.59;25.77;99209.59;5091443;28;40934;-75
2022/08/02 09:53:52;;;;;;;1.43;1.20;;;;;;;37.44;25.12;99197.91;5090894;28;41707;-74
2022/08/02 09:56:22;;;;;;;1.17;1.07;;;;;;;38.92;23.38;99227.44;5087358;28;42580;-74
2022/08/02 09:58:53;;;;;;;1.10;1.00;;;;;;;39.81;22.12;99227.13;5090112;28;41933;-74
2022/08/02 10:01:22;;;;;;;1.00;1.00;;;;;;;39.86;21.75;99224.34;5090782;28;39957;-73
2022/08/02 10:03:58;;;;;;;3.63;1.08;;;;;;;39.25;22.37;99221.47;5089927;28;40867;-74
2022/08/02 10:06:27;;;;;;;1.10;1.10;;;;;;;38.78;22.82;99207.72;5090368;28;42563;-74
2022/08/02 10:08:55;;;;;;;0.95;0.95;;;;;;;38.47;23.09;99206.72;5089388;28;41297;-74
2022/08/02 10:11:28;;;;;;;1.00;1.00;;;;;;;38.20;23.44;99173.66;5090210;28;38275;-74
2022/08/02 10:13:56;;;;;;;1.00;1.00;;;;;;;38.53;22.99;99200.16;5087935;28;41458;-74
2022/08/02 10:16:24;;;;;;;1.00;1.00;;;;;;;38.82;22.69;99205.25;5090113;28;43698;-75
2022/08/02 10:18:54;;;;;;;1.25;1.08;;;;;;;39.96;21.16;99216.00;5089189;28;42161;-74
2022/08/02 10:21:29;;;;;;;1.17;1.17;;;;;;;41.83;19.39;99221.91;5090063;28;41897;-74
2022/08/02 10:24:06;;;;;;;1.15;1.10;;;;;;;43.56;17.74;99234.66;5089877;28;41364;-74
2022/08/02 10:26:36;;;;;;;0.93;0.80;;;;;;;44.17;16.75;99231.72;5090051;28;41580;-74
2022/08/02 10:29:04;;;;;;;0.80;0.80;;;;;;;44.73;16.74;99225.06;5090758;28;43029;-74
2022/08/02 10:31:36;;;;;;;0.80;0.80;;;;;;;44.96;16.76;99212.84;5090101;28;40012;-75
2022/08/02 10:34:10;;;;;;;0.70;0.70;;;;;;;45.23;16.50;99213.97;5089653;28;42914;-75
2022/08/02 10:36:40;;;;;;;0.80;0.80;;;;;;;44.95;16.86;99214.00;5086871;28;43774;-75
2022/08/02 10:39:09;;;;;;;0.90;0.90;;;;;;;44.34;17.07;99215.19;5090965;28;41755;-75
2022/08/02 10:41:56;;;;;;;0.80;0.80;;;;;;;44.12;16.46;99206.69;5091180;28;39804;-74
2022/08/02 10:44:27;;;;;;;1.08;0.98;;;;;;;44.57;16.57;99202.19;5088231;28;42578;-75
2022/08/02 10:47:19;;;;;;;0.70;0.70;;;;;;;45.62;15.46;99200.16;5075863;28;42842;-75
2022/08/02 10:49:52;;;;;;;1.00;1.00;;;;;;;45.69;15.52;99200.53;5092761;28;44534;-75
2022/08/02 10:52:20;;;;;;;1.00;1.00;;;;;;;44.95;16.22;99191.63;5093223;28;39932;-74
2022/08/02 10:54:49;;;;;;;1.33;1.23;;;;;;;44.49;16.86;99188.97;5093947;28;41779;-74
2022/08/02 10:57:22;;;;;;;0.82;0.80;;;;;;;44.43;16.86;99189.34;5094257;28;42581;-74
2022/08/02 10:59:51;;;;;;;1.02;0.70;;;;;;;44.97;16.74;99189.34;5092653;28;41349;-75
2022/08/02 11:02:38;;;;;;;1.15;1.13;;;;;;;45.09;16.02;99186.81;5094472;28;40674;-75
2022/08/02 11:05:12;;;;;;;0.93;0.93;;;;;;;43.96;16.46;99186.56;5092438;28;42705;-75
2022/08/02 11:07:42;;;;;;;1.00;1.00;;;;;;;43.27;17.24;99188.28;5091012;28;42814;-76
2022/08/02 11:10:43;;;;;;;1.00;0.90;;;;;;;43.04;18.01;99168.78;5093807;28;41935;-75
2022/08/02 11:13:14;;;;;;;1.30;1.20;;;;;;;43.16;17.63;99172.75;5091056;28;40933;-75
2022/08/02 11:15:52;;;;;;;0.90;0.90;;;;;;;43.42;17.46;99176.03;5076152;28;40936;-74
2022/08/02 11:18:21;;;;;;;0.95;0.80;;;;;;;43.65;17.17;99169.53;5092702;28;42484;-75
2022/08/02 11:21:20;;;;;;;1.92;1.13;;;;;;;44.19;16.58;99173.59;5075573;28;42376;-75
2022/08/02 11:23:48;;;;;;;0.70;0.70;;;;;;;44.58;16.09;99169.50;5090456;28;40915;-74
2022/08/02 11:26:42;;;;;;;1.95;0.80;;;;;;;44.57;16.01;99173.41;5075650;28;40729;-74
2022/08/02 11:29:12;;;;;;;0.80;0.80;;;;;;;44.19;16.44;99168.00;5092454;28;43738;-74
2022/08/02 11:31:42;;;;;;;1.10;1.00;;;;;;;43.66;17.00;99162.81;5075737;28;41260;-74
2022/08/02 11:34:11;;;;;;;1.25;0.85;;;;;;;43.31;16.83;99146.63;5093712;28;39823;-74
2022/08/02 11:36:46;;;;;;;0.80;0.80;;;;;;;43.14;17.30;99163.06;5092078;28;42291;-74
2022/08/02 11:39:16;;;;;;;1.00;0.98;;;;;;;43.03;17.10;99161.56;5093258;28;42770;-74
2022/08/02 11:41:49;;;;;;;1.10;1.00;;;;;;;43.08;17.19;99147.53;5093503;28;44376;-74
2022/08/02 11:44:19;;;;;;;0.82;0.82;;;;;;;43.20;16.75;99151.56;5092125;28;40494;-74
2022/08/02 11:46:55;;;;;;;0.98;0.93;;;;;;;43.40;16.61;99153.19;5093339;28;42732;-75
2022/08/02 11:49:23;;;;;;;1.17;1.10;;;;;;;43.66;16.77;99150.81;5090755;28;43712;-75
2022/08/02 11:51:56;;;;;;;0.98;0.98;;;;;;;43.93;16.56;99144.47;5092032;28;41457;-75